Terminal Aerodrome Forecast
Issued by NWS

Home | Current Version | Previous Version | Text Only | Print | Product List | Glossary Off
Versions: 1 2 3 4 5 6 7 8 9 10 11 12 13 14 15 16 17 18 19

000
FTUS43 KABR 171300 AAA
TAFATY
TAF AMD
KATY 171302Z 1713/1812 30004KT 1/4SM FG OVC002
     FM171400 30004KT 3SM BR BKN005
     FM171500 VRB04KT P6SM BKN008
     FM172200 18006KT P6SM VCSH BKN040
     FM180600 32006KT P6SM VCSH BKN040
     FM181000 32006KT P6SM SKC=

USA.gov is the U.S. government's official web portal to all federal, state and local government web resources and services.